sensor_id;sensor_type;location;lat;lon;timestamp;P1;durP1;ratioP1;P2;durP2;ratioP2
58338;SDS011;68636;52.704;6.536;2024-03-08T00:01:55;33.90;;;12.07;;
58338;SDS011;68636;52.704;6.536;2024-03-08T00:04:22;27.35;;;10.27;;
58338;SDS011;68636;52.704;6.536;2024-03-08T00:06:48;26.40;;;11.10;;
58338;SDS011;68636;52.704;6.536;2024-03-08T00:09:15;30.67;;;11.65;;
58338;SDS011;68636;52.704;6.536;2024-03-08T00:11:41;29.55;;;11.75;;
58338;SDS011;68636;52.704;6.536;2024-03-08T00:14:08;27.48;;;11.43;;
58338;SDS011;68636;52.704;6.536;2024-03-08T00:16:34;31.27;;;12.43;;
58338;SDS011;68636;52.704;6.536;2024-03-08T00:19:00;29.33;;;11.03;;
58338;SDS011;68636;52.704;6.536;2024-03-08T00:21:26;30.30;;;10.40;;
58338;SDS011;68636;52.704;6.536;2024-03-08T00:23:53;29.33;;;11.27;;
58338;SDS011;68636;52.704;6.536;2024-03-08T00:26:20;21.52;;;6.38;;
58338;SDS011;68636;52.704;6.536;2024-03-08T00:28:47;26.13;;;9.32;;
58338;SDS011;68636;52.704;6.536;2024-03-08T00:31:14;33.40;;;11.63;;
58338;SDS011;68636;52.704;6.536;2024-03-08T00:33:43;35.28;;;12.55;;
58338;SDS011;68636;52.704;6.536;2024-03-08T00:36:09;30.75;;;11.88;;
58338;SDS011;68636;52.704;6.536;2024-03-08T00:38:35;31.45;;;13.63;;
58338;SDS011;68636;52.704;6.536;2024-03-08T00:41:01;32.50;;;13.00;;
58338;SDS011;68636;52.704;6.536;2024-03-08T00:43:27;30.40;;;12.23;;
58338;SDS011;68636;52.704;6.536;2024-03-08T00:45:55;27.23;;;10.45;;
58338;SDS011;68636;52.704;6.536;2024-03-08T00:48:23;28.17;;;11.18;;
58338;SDS011;68636;52.704;6.536;2024-03-08T00:50:49;34.45;;;12.40;;
58338;SDS011;68636;52.704;6.536;2024-03-08T00:53:15;35.33;;;13.68;;
58338;SDS011;68636;52.704;6.536;2024-03-08T00:55:42;31.83;;;12.82;;
58338;SDS011;68636;52.704;6.536;2024-03-08T00:58:11;33.38;;;11.27;;
58338;SDS011;68636;52.704;6.536;2024-03-08T01:00:37;33.42;;;11.77;;
58338;SDS011;68636;52.704;6.536;2024-03-08T01:03:04;28.87;;;12.10;;
58338;SDS011;68636;52.704;6.536;2024-03-08T01:05:31;31.85;;;13.15;;
58338;SDS011;68636;52.704;6.536;2024-03-08T01:07:58;29.38;;;10.55;;
58338;SDS011;68636;52.704;6.536;2024-03-08T01:10:24;29.45;;;11.90;;
58338;SDS011;68636;52.704;6.536;2024-03-08T01:12:50;33.13;;;12.10;;
58338;SDS011;68636;52.704;6.536;2024-03-08T01:15:16;31.38;;;11.68;;
58338;SDS011;68636;52.704;6.536;2024-03-08T01:17:42;36.25;;;11.52;;
58338;SDS011;68636;52.704;6.536;2024-03-08T01:20:09;29.38;;;10.95;;
58338;SDS011;68636;52.704;6.536;2024-03-08T01:22:40;31.20;;;11.95;;
58338;SDS011;68636;52.704;6.536;2024-03-08T01:25:07;30.42;;;11.93;;
58338;SDS011;68636;52.704;6.536;2024-03-08T01:27:33;30.70;;;11.88;;
58338;SDS011;68636;52.704;6.536;2024-03-08T01:30:00;32.28;;;11.88;;
58338;SDS011;68636;52.704;6.536;2024-03-08T01:32:26;34.10;;;12.65;;
58338;SDS011;68636;52.704;6.536;2024-03-08T01:34:53;30.00;;;11.65;;
58338;SDS011;68636;52.704;6.536;2024-03-08T01:37:19;36.42;;;12.73;;
58338;SDS011;68636;52.704;6.536;2024-03-08T01:39:45;31.13;;;12.55;;
58338;SDS011;68636;52.704;6.536;2024-03-08T01:42:11;28.55;;;11.30;;
58338;SDS011;68636;52.704;6.536;2024-03-08T01:44:40;25.35;;;10.27;;
58338;SDS011;68636;52.704;6.536;2024-03-08T01:47:06;33.85;;;11.55;;
58338;SDS011;68636;52.704;6.536;2024-03-08T01:49:33;34.63;;;13.07;;
58338;SDS011;68636;52.704;6.536;2024-03-08T01:51:59;28.40;;;10.02;;
58338;SDS011;68636;52.704;6.536;2024-03-08T01:54:25;34.45;;;12.80;;
58338;SDS011;68636;52.704;6.536;2024-03-08T01:56:52;34.13;;;13.02;;
58338;SDS011;68636;52.704;6.536;2024-03-08T01:59:18;32.85;;;12.43;;
58338;SDS011;68636;52.704;6.536;2024-03-08T02:01:45;36.22;;;11.93;;
58338;SDS011;68636;52.704;6.536;2024-03-08T02:04:11;36.55;;;13.85;;
58338;SDS011;68636;52.704;6.536;2024-03-08T02:06:37;34.00;;;12.77;;
58338;SDS011;68636;52.704;6.536;2024-03-08T02:09:03;32.55;;;13.20;;
58338;SDS011;68636;52.704;6.536;2024-03-08T02:11:36;31.48;;;13.18;;
58338;SDS011;68636;52.704;6.536;2024-03-08T02:14:02;33.65;;;12.95;;
58338;SDS011;68636;52.704;6.536;2024-03-08T02:16:31;35.28;;;13.85;;
58338;SDS011;68636;52.704;6.536;2024-03-08T02:18:58;30.23;;;12.13;;
58338;SDS011;68636;52.704;6.536;2024-03-08T02:21:25;31.67;;;11.70;;
58338;SDS011;68636;52.704;6.536;2024-03-08T02:23:51;32.38;;;13.27;;
58338;SDS011;68636;52.704;6.536;2024-03-08T02:26:17;30.88;;;12.43;;
58338;SDS011;68636;52.704;6.536;2024-03-08T02:28:44;32.58;;;10.77;;
58338;SDS011;68636;52.704;6.536;2024-03-08T02:31:10;30.50;;;12.48;;
58338;SDS011;68636;52.704;6.536;2024-03-08T02:33:37;31.58;;;12.57;;
58338;SDS011;68636;52.704;6.536;2024-03-08T02:36:03;30.00;;;10.98;;
58338;SDS011;68636;52.704;6.536;2024-03-08T02:38:31;31.85;;;12.23;;
58338;SDS011;68636;52.704;6.536;2024-03-08T02:40:58;29.92;;;11.85;;
58338;SDS011;68636;52.704;6.536;2024-03-08T02:43:24;29.80;;;10.85;;
58338;SDS011;68636;52.704;6.536;2024-03-08T02:45:50;33.05;;;11.25;;
58338;SDS011;68636;52.704;6.536;2024-03-08T02:48:19;33.60;;;13.82;;
58338;SDS011;68636;52.704;6.536;2024-03-08T02:50:46;32.97;;;12.25;;
58338;SDS011;68636;52.704;6.536;2024-03-08T02:53:13;34.50;;;12.15;;
58338;SDS011;68636;52.704;6.536;2024-03-08T02:55:39;33.72;;;12.88;;
58338;SDS011;68636;52.704;6.536;2024-03-08T02:58:06;35.40;;;12.88;;
58338;SDS011;68636;52.704;6.536;2024-03-08T03:00:35;32.08;;;13.73;;
58338;SDS011;68636;52.704;6.536;2024-03-08T03:03:02;31.23;;;13.10;;
58338;SDS011;68636;52.704;6.536;2024-03-08T03:05:28;33.92;;;11.82;;
58338;SDS011;68636;52.704;6.536;2024-03-08T03:07:55;36.45;;;13.98;;
58338;SDS011;68636;52.704;6.536;2024-03-08T03:10:21;30.92;;;12.95;;
58338;SDS011;68636;52.704;6.536;2024-03-08T03:12:47;36.35;;;12.55;;
58338;SDS011;68636;52.704;6.536;2024-03-08T03:15:14;36.28;;;12.70;;
58338;SDS011;68636;52.704;6.536;2024-03-08T03:17:45;33.67;;;13.15;;
58338;SDS011;68636;52.704;6.536;2024-03-08T03:20:11;21.70;;;8.10;;
58338;SDS011;68636;52.704;6.536;2024-03-08T03:22:47;30.75;;;11.20;;
58338;SDS011;68636;52.704;6.536;2024-03-08T03:25:17;33.33;;;14.10;;
58338;SDS011;68636;52.704;6.536;2024-03-08T03:27:49;26.75;;;10.98;;
58338;SDS011;68636;52.704;6.536;2024-03-08T03:30:15;35.75;;;12.95;;
58338;SDS011;68636;52.704;6.536;2024-03-08T03:32:47;36.38;;;13.60;;
58338;SDS011;68636;52.704;6.536;2024-03-08T03:35:14;33.63;;;13.02;;
58338;SDS011;68636;52.704;6.536;2024-03-08T03:37:41;30.87;;;12.83;;
58338;SDS011;68636;52.704;6.536;2024-03-08T03:40:16;35.60;;;11.95;;
58338;SDS011;68636;52.704;6.536;2024-03-08T03:42:44;38.33;;;13.63;;
58338;SDS011;68636;52.704;6.536;2024-03-08T03:45:11;36.50;;;13.13;;
58338;SDS011;68636;52.704;6.536;2024-03-08T03:47:37;34.03;;;12.75;;
58338;SDS011;68636;52.704;6.536;2024-03-08T03:50:04;35.92;;;13.65;;
58338;SDS011;68636;52.704;6.536;2024-03-08T03:52:30;35.95;;;13.77;;
58338;SDS011;68636;52.704;6.536;2024-03-08T03:54:56;29.10;;;11.75;;
58338;SDS011;68636;52.704;6.536;2024-03-08T03:57:23;36.05;;;13.70;;
58338;SDS011;68636;52.704;6.536;2024-03-08T03:59:49;33.28;;;13.32;;
58338;SDS011;68636;52.704;6.536;2024-03-08T04:02:16;33.78;;;14.13;;
58338;SDS011;68636;52.704;6.536;2024-03-08T04:04:42;32.92;;;13.23;;
58338;SDS011;68636;52.704;6.536;2024-03-08T04:07:10;35.70;;;14.85;;
58338;SDS011;68636;52.704;6.536;2024-03-08T04:09:36;36.63;;;13.57;;
58338;SDS011;68636;52.704;6.536;2024-03-08T04:12:03;34.22;;;12.30;;
58338;SDS011;68636;52.704;6.536;2024-03-08T04:14:29;28.83;;;11.70;;
58338;SDS011;68636;52.704;6.536;2024-03-08T04:16:55;36.25;;;13.65;;
58338;SDS011;68636;52.704;6.536;2024-03-08T04:19:21;36.45;;;13.95;;
58338;SDS011;68636;52.704;6.536;2024-03-08T04:21:48;34.80;;;12.57;;
58338;SDS011;68636;52.704;6.536;2024-03-08T04:24:14;35.75;;;14.65;;
58338;SDS011;68636;52.704;6.536;2024-03-08T04:26:42;31.95;;;13.30;;
58338;SDS011;68636;52.704;6.536;2024-03-08T04:29:08;30.33;;;12.60;;
58338;SDS011;68636;52.704;6.536;2024-03-08T04:31:34;38.55;;;14.95;;
58338;SDS011;68636;52.704;6.536;2024-03-08T04:34:00;35.35;;;13.13;;
58338;SDS011;68636;52.704;6.536;2024-03-08T04:36:27;38.60;;;14.77;;
58338;SDS011;68636;52.704;6.536;2024-03-08T04:38:53;38.35;;;14.60;;
58338;SDS011;68636;52.704;6.536;2024-03-08T04:41:19;37.95;;;15.10;;
58338;SDS011;68636;52.704;6.536;2024-03-08T04:43:46;39.70;;;14.00;;
58338;SDS011;68636;52.704;6.536;2024-03-08T04:46:12;36.45;;;13.48;;
58338;SDS011;68636;52.704;6.536;2024-03-08T04:48:39;37.13;;;15.77;;
58338;SDS011;68636;52.704;6.536;2024-03-08T04:51:07;37.38;;;14.35;;
58338;SDS011;68636;52.704;6.536;2024-03-08T04:53:34;37.92;;;14.70;;
58338;SDS011;68636;52.704;6.536;2024-03-08T04:56:00;34.42;;;14.55;;
58338;SDS011;68636;52.704;6.536;2024-03-08T04:58:31;38.08;;;15.10;;
58338;SDS011;68636;52.704;6.536;2024-03-08T05:01:00;39.38;;;14.75;;
58338;SDS011;68636;52.704;6.536;2024-03-08T05:03:26;37.20;;;14.50;;
58338;SDS011;68636;52.704;6.536;2024-03-08T05:05:52;37.35;;;14.25;;
58338;SDS011;68636;52.704;6.536;2024-03-08T05:08:18;33.47;;;14.85;;
58338;SDS011;68636;52.704;6.536;2024-03-08T05:10:44;36.40;;;14.93;;
58338;SDS011;68636;52.704;6.536;2024-03-08T05:13:11;41.25;;;15.52;;
58338;SDS011;68636;52.704;6.536;2024-03-08T05:15:41;37.40;;;14.00;;
58338;SDS011;68636;52.704;6.536;2024-03-08T05:18:07;34.53;;;14.43;;
58338;SDS011;68636;52.704;6.536;2024-03-08T05:20:36;33.95;;;14.95;;
58338;SDS011;68636;52.704;6.536;2024-03-08T05:23:02;37.28;;;13.98;;
58338;SDS011;68636;52.704;6.536;2024-03-08T05:25:30;32.97;;;13.20;;
58338;SDS011;68636;52.704;6.536;2024-03-08T05:27:56;38.17;;;13.88;;
58338;SDS011;68636;52.704;6.536;2024-03-08T05:30:23;35.20;;;13.63;;
58338;SDS011;68636;52.704;6.536;2024-03-08T05:32:49;35.13;;;14.32;;
58338;SDS011;68636;52.704;6.536;2024-03-08T05:35:15;42.85;;;14.70;;
58338;SDS011;68636;52.704;6.536;2024-03-08T05:37:41;47.10;;;15.77;;
58338;SDS011;68636;52.704;6.536;2024-03-08T05:40:08;35.83;;;13.80;;
58338;SDS011;68636;52.704;6.536;2024-03-08T05:42:35;43.95;;;17.60;;
58338;SDS011;68636;52.704;6.536;2024-03-08T05:45:04;35.88;;;14.02;;
58338;SDS011;68636;52.704;6.536;2024-03-08T05:47:36;36.03;;;12.85;;
58338;SDS011;68636;52.704;6.536;2024-03-08T05:50:05;39.20;;;16.58;;
58338;SDS011;68636;52.704;6.536;2024-03-08T05:52:35;41.75;;;16.42;;
58338;SDS011;68636;52.704;6.536;2024-03-08T05:55:03;36.78;;;12.95;;
58338;SDS011;68636;52.704;6.536;2024-03-08T05:57:32;38.67;;;13.10;;
58338;SDS011;68636;52.704;6.536;2024-03-08T05:59:58;41.35;;;15.57;;
58338;SDS011;68636;52.704;6.536;2024-03-08T06:02:24;36.60;;;15.18;;
58338;SDS011;68636;52.704;6.536;2024-03-08T06:04:50;39.30;;;14.20;;
58338;SDS011;68636;52.704;6.536;2024-03-08T06:07:16;38.08;;;14.77;;
58338;SDS011;68636;52.704;6.536;2024-03-08T06:09:42;38.70;;;15.98;;
58338;SDS011;68636;52.704;6.536;2024-03-08T06:12:11;34.53;;;13.75;;
58338;SDS011;68636;52.704;6.536;2024-03-08T06:14:44;39.92;;;14.85;;
58338;SDS011;68636;52.704;6.536;2024-03-08T06:17:10;36.77;;;15.67;;
58338;SDS011;68636;52.704;6.536;2024-03-08T06:19:36;37.05;;;14.82;;
58338;SDS011;68636;52.704;6.536;2024-03-08T06:22:02;36.55;;;13.82;;
58338;SDS011;68636;52.704;6.536;2024-03-08T06:24:31;34.70;;;12.00;;
58338;SDS011;68636;52.704;6.536;2024-03-08T06:26:57;41.58;;;15.18;;
58338;SDS011;68636;52.704;6.536;2024-03-08T06:29:23;40.67;;;14.68;;
58338;SDS011;68636;52.704;6.536;2024-03-08T06:31:49;42.20;;;15.93;;
58338;SDS011;68636;52.704;6.536;2024-03-08T06:34:15;40.83;;;15.07;;
58338;SDS011;68636;52.704;6.536;2024-03-08T06:36:43;42.38;;;16.73;;
58338;SDS011;68636;52.704;6.536;2024-03-08T06:39:09;34.33;;;13.07;;
58338;SDS011;68636;52.704;6.536;2024-03-08T06:41:36;36.80;;;14.65;;
58338;SDS011;68636;52.704;6.536;2024-03-08T06:44:02;37.75;;;15.05;;
58338;SDS011;68636;52.704;6.536;2024-03-08T06:46:28;30.88;;;12.63;;
58338;SDS011;68636;52.704;6.536;2024-03-08T06:48:54;39.00;;;15.30;;
58338;SDS011;68636;52.704;6.536;2024-03-08T06:51:21;34.30;;;13.05;;
58338;SDS011;68636;52.704;6.536;2024-03-08T06:53:47;30.50;;;8.98;;
58338;SDS011;68636;52.704;6.536;2024-03-08T06:56:14;41.42;;;15.50;;
58338;SDS011;68636;52.704;6.536;2024-03-08T06:58:40;34.58;;;13.45;;
58338;SDS011;68636;52.704;6.536;2024-03-08T07:01:07;34.90;;;14.63;;
58338;SDS011;68636;52.704;6.536;2024-03-08T07:03:39;37.83;;;15.13;;
58338;SDS011;68636;52.704;6.536;2024-03-08T07:06:12;37.55;;;14.45;;
58338;SDS011;68636;52.704;6.536;2024-03-08T07:08:39;38.88;;;14.77;;
58338;SDS011;68636;52.704;6.536;2024-03-08T07:11:05;40.38;;;15.30;;
58338;SDS011;68636;52.704;6.536;2024-03-08T07:13:31;38.03;;;15.25;;
58338;SDS011;68636;52.704;6.536;2024-03-08T07:15:57;38.88;;;15.00;;
58338;SDS011;68636;52.704;6.536;2024-03-08T07:18:26;34.00;;;13.32;;
58338;SDS011;68636;52.704;6.536;2024-03-08T07:20:52;40.78;;;15.23;;
58338;SDS011;68636;52.704;6.536;2024-03-08T07:23:18;40.20;;;16.00;;
58338;SDS011;68636;52.704;6.536;2024-03-08T07:26:03;40.80;;;15.90;;
58338;SDS011;68636;52.704;6.536;2024-03-08T07:28:29;41.53;;;15.38;;
58338;SDS011;68636;52.704;6.536;2024-03-08T07:30:56;43.30;;;16.13;;
58338;SDS011;68636;52.704;6.536;2024-03-08T07:33:38;36.35;;;15.15;;
58338;SDS011;68636;52.704;6.536;2024-03-08T07:36:04;35.75;;;15.05;;
58338;SDS011;68636;52.704;6.536;2024-03-08T07:38:30;38.83;;;15.48;;
58338;SDS011;68636;52.704;6.536;2024-03-08T07:40:56;41.50;;;14.95;;
58338;SDS011;68636;52.704;6.536;2024-03-08T07:43:22;40.90;;;14.65;;
58338;SDS011;68636;52.704;6.536;2024-03-08T07:45:49;36.83;;;14.85;;
58338;SDS011;68636;52.704;6.536;2024-03-08T07:48:16;31.05;;;11.82;;
58338;SDS011;68636;52.704;6.536;2024-03-08T07:50:42;36.90;;;14.15;;
58338;SDS011;68636;52.704;6.536;2024-03-08T07:53:09;37.50;;;14.88;;
58338;SDS011;68636;52.704;6.536;2024-03-08T07:55:35;37.45;;;13.40;;
58338;SDS011;68636;52.704;6.536;2024-03-08T07:58:02;39.83;;;15.55;;
58338;SDS011;68636;52.704;6.536;2024-03-08T08:00:28;37.30;;;15.47;;
58338;SDS011;68636;52.704;6.536;2024-03-08T08:02:57;33.25;;;14.07;;
58338;SDS011;68636;52.704;6.536;2024-03-08T08:05:23;41.25;;;16.25;;
58338;SDS011;68636;52.704;6.536;2024-03-08T08:07:50;39.78;;;14.88;;
58338;SDS011;68636;52.704;6.536;2024-03-08T08:10:18;33.72;;;13.75;;
58338;SDS011;68636;52.704;6.536;2024-03-08T08:12:47;33.80;;;14.38;;
58338;SDS011;68636;52.704;6.536;2024-03-08T08:15:13;44.05;;;15.85;;
58338;SDS011;68636;52.704;6.536;2024-03-08T08:17:40;37.60;;;15.43;;
58338;SDS011;68636;52.704;6.536;2024-03-08T08:20:07;46.25;;;16.30;;
58338;SDS011;68636;52.704;6.536;2024-03-08T08:22:33;34.33;;;13.70;;
58338;SDS011;68636;52.704;6.536;2024-03-08T08:25:00;34.00;;;11.85;;
58338;SDS011;68636;52.704;6.536;2024-03-08T08:27:27;39.42;;;15.20;;
58338;SDS011;68636;52.704;6.536;2024-03-08T08:29:53;37.42;;;15.07;;
58338;SDS011;68636;52.704;6.536;2024-03-08T08:32:19;35.67;;;15.05;;
58338;SDS011;68636;52.704;6.536;2024-03-08T08:34:45;39.00;;;16.77;;
58338;SDS011;68636;52.704;6.536;2024-03-08T08:37:11;26.10;;;10.88;;
58338;SDS011;68636;52.704;6.536;2024-03-08T08:39:37;34.20;;;14.95;;
58338;SDS011;68636;52.704;6.536;2024-03-08T08:42:03;30.25;;;12.50;;
58338;SDS011;68636;52.704;6.536;2024-03-08T08:44:29;38.92;;;15.95;;
58338;SDS011;68636;52.704;6.536;2024-03-08T08:46:56;37.53;;;12.80;;
58338;SDS011;68636;52.704;6.536;2024-03-08T08:49:23;35.90;;;15.27;;
58338;SDS011;68636;52.704;6.536;2024-03-08T08:51:51;30.33;;;11.57;;
58338;SDS011;68636;52.704;6.536;2024-03-08T08:54:17;36.17;;;14.20;;
58338;SDS011;68636;52.704;6.536;2024-03-08T08:56:44;34.60;;;14.73;;
58338;SDS011;68636;52.704;6.536;2024-03-08T08:59:10;27.48;;;11.02;;
58338;SDS011;68636;52.704;6.536;2024-03-08T09:01:40;24.17;;;9.90;;
58338;SDS011;68636;52.704;6.536;2024-03-08T09:04:06;37.78;;;14.50;;
58338;SDS011;68636;52.704;6.536;2024-03-08T09:06:33;36.47;;;14.82;;
58338;SDS011;68636;52.704;6.536;2024-03-08T09:08:59;37.17;;;14.90;;
58338;SDS011;68636;52.704;6.536;2024-03-08T09:11:25;32.75;;;12.90;;
58338;SDS011;68636;52.704;6.536;2024-03-08T09:13:51;35.85;;;14.82;;
58338;SDS011;68636;52.704;6.536;2024-03-08T09:16:18;36.05;;;14.98;;
58338;SDS011;68636;52.704;6.536;2024-03-08T09:18:44;37.28;;;16.10;;
58338;SDS011;68636;52.704;6.536;2024-03-08T09:21:10;28.83;;;14.27;;
58338;SDS011;68636;52.704;6.536;2024-03-08T09:23:38;40.05;;;16.00;;
58338;SDS011;68636;52.704;6.536;2024-03-08T09:26:06;43.75;;;16.20;;
58338;SDS011;68636;52.704;6.536;2024-03-08T09:28:34;27.73;;;10.73;;
58338;SDS011;68636;52.704;6.536;2024-03-08T09:31:01;39.42;;;15.52;;
58338;SDS011;68636;52.704;6.536;2024-03-08T09:33:27;37.22;;;15.00;;
58338;SDS011;68636;52.704;6.536;2024-03-08T09:35:54;34.60;;;14.82;;
58338;SDS011;68636;52.704;6.536;2024-03-08T09:38:22;39.80;;;16.08;;
58338;SDS011;68636;52.704;6.536;2024-03-08T09:40:50;33.22;;;14.57;;
58338;SDS011;68636;52.704;6.536;2024-03-08T09:43:16;35.45;;;14.60;;
58338;SDS011;68636;52.704;6.536;2024-03-08T09:45:43;32.30;;;13.82;;
58338;SDS011;68636;52.704;6.536;2024-03-08T09:48:11;37.35;;;15.85;;
58338;SDS011;68636;52.704;6.536;2024-03-08T09:53:06;32.08;;;12.02;;
58338;SDS011;68636;52.704;6.536;2024-03-08T09:58:02;30.42;;;11.35;;
58338;SDS011;68636;52.704;6.536;2024-03-08T10:00:47;31.58;;;11.75;;
58338;SDS011;68636;52.704;6.536;2024-03-08T10:03:13;36.08;;;14.07;;
58338;SDS011;68636;52.704;6.536;2024-03-08T10:05:42;38.72;;;15.55;;
58338;SDS011;68636;52.704;6.536;2024-03-08T10:08:09;34.30;;;15.27;;
58338;SDS011;68636;52.704;6.536;2024-03-08T10:10:39;32.83;;;12.00;;
58338;SDS011;68636;52.704;6.536;2024-03-08T10:13:09;38.67;;;16.98;;
58338;SDS011;68636;52.704;6.536;2024-03-08T10:15:37;38.92;;;15.77;;
58338;SDS011;68636;52.704;6.536;2024-03-08T10:18:05;35.13;;;15.82;;
58338;SDS011;68636;52.704;6.536;2024-03-08T10:20:32;38.38;;;15.93;;
58338;SDS011;68636;52.704;6.536;2024-03-08T10:23:01;29.08;;;14.00;;
58338;SDS011;68636;52.704;6.536;2024-03-08T10:25:30;32.08;;;13.55;;
58338;SDS011;68636;52.704;6.536;2024-03-08T10:27:56;29.25;;;12.65;;
58338;SDS011;68636;52.704;6.536;2024-03-08T10:30:22;38.20;;;14.80;;
58338;SDS011;68636;52.704;6.536;2024-03-08T10:32:48;34.55;;;14.40;;
58338;SDS011;68636;52.704;6.536;2024-03-08T10:35:16;33.53;;;15.60;;
58338;SDS011;68636;52.704;6.536;2024-03-08T10:37:49;36.05;;;16.60;;
58338;SDS011;68636;52.704;6.536;2024-03-08T10:40:24;37.10;;;15.95;;
58338;SDS011;68636;52.704;6.536;2024-03-08T10:45:26;30.38;;;12.63;;
58338;SDS011;68636;52.704;6.536;2024-03-08T10:50:41;31.58;;;13.82;;
58338;SDS011;68636;52.704;6.536;2024-03-08T10:53:10;28.95;;;11.95;;
58338;SDS011;68636;52.704;6.536;2024-03-08T10:55:37;36.53;;;15.95;;
58338;SDS011;68636;52.704;6.536;2024-03-08T10:58:06;31.17;;;13.85;;
58338;SDS011;68636;52.704;6.536;2024-03-08T11:00:32;37.63;;;15.88;;
58338;SDS011;68636;52.704;6.536;2024-03-08T11:02:59;32.92;;;13.70;;
58338;SDS011;68636;52.704;6.536;2024-03-08T11:05:41;33.40;;;15.75;;
58338;SDS011;68636;52.704;6.536;2024-03-08T11:08:20;27.83;;;11.85;;
58338;SDS011;68636;52.704;6.536;2024-03-08T11:10:49;34.42;;;14.55;;
58338;SDS011;68636;52.704;6.536;2024-03-08T11:16:07;29.02;;;12.52;;
58338;SDS011;68636;52.704;6.536;2024-03-08T11:18:35;32.08;;;14.55;;
58338;SDS011;68636;52.704;6.536;2024-03-08T11:21:04;32.63;;;15.50;;
58338;SDS011;68636;52.704;6.536;2024-03-08T11:23:32;35.13;;;15.80;;
58338;SDS011;68636;52.704;6.536;2024-03-08T11:25:59;28.50;;;12.95;;
58338;SDS011;68636;52.704;6.536;2024-03-08T11:28:25;27.30;;;12.07;;
58338;SDS011;68636;52.704;6.536;2024-03-08T11:33:24;29.83;;;13.77;;
58338;SDS011;68636;52.704;6.536;2024-03-08T11:35:52;32.78;;;14.63;;
58338;SDS011;68636;52.704;6.536;2024-03-08T11:38:18;33.58;;;14.05;;
58338;SDS011;68636;52.704;6.536;2024-03-08T11:40:48;33.90;;;16.25;;
58338;SDS011;68636;52.704;6.536;2024-03-08T11:43:17;28.35;;;12.82;;
58338;SDS011;68636;52.704;6.536;2024-03-08T11:45:43;32.05;;;15.15;;
58338;SDS011;68636;52.704;6.536;2024-03-08T11:48:09;35.05;;;15.40;;
58338;SDS011;68636;52.704;6.536;2024-03-08T11:50:38;30.40;;;14.55;;
58338;SDS011;68636;52.704;6.536;2024-03-08T11:53:04;28.40;;;13.88;;
58338;SDS011;68636;52.704;6.536;2024-03-08T11:55:33;36.15;;;15.18;;
58338;SDS011;68636;52.704;6.536;2024-03-08T11:58:04;32.33;;;15.00;;
58338;SDS011;68636;52.704;6.536;2024-03-08T12:00:33;31.60;;;14.43;;
58338;SDS011;68636;52.704;6.536;2024-03-08T12:03:09;30.48;;;13.73;;
58338;SDS011;68636;52.704;6.536;2024-03-08T12:05:36;33.95;;;15.93;;
58338;SDS011;68636;52.704;6.536;2024-03-08T12:10:30;20.30;;;9.07;;
58338;SDS011;68636;52.704;6.536;2024-03-08T12:12:57;31.63;;;12.23;;
58338;SDS011;68636;52.704;6.536;2024-03-08T12:15:28;31.23;;;14.88;;
58338;SDS011;68636;52.704;6.536;2024-03-08T12:17:57;30.80;;;13.48;;
58338;SDS011;68636;52.704;6.536;2024-03-08T12:20:26;34.00;;;15.10;;
58338;SDS011;68636;52.704;6.536;2024-03-08T12:22:55;33.17;;;15.52;;
58338;SDS011;68636;52.704;6.536;2024-03-08T12:25:31;30.10;;;13.60;;
58338;SDS011;68636;52.704;6.536;2024-03-08T12:28:12;30.15;;;13.77;;
58338;SDS011;68636;52.704;6.536;2024-03-08T12:30:47;29.20;;;13.90;;
58338;SDS011;68636;52.704;6.536;2024-03-08T12:33:13;30.55;;;13.82;;
58338;SDS011;68636;52.704;6.536;2024-03-08T12:35:39;30.67;;;13.77;;
58338;SDS011;68636;52.704;6.536;2024-03-08T12:38:07;28.10;;;10.70;;
58338;SDS011;68636;52.704;6.536;2024-03-08T12:40:33;25.45;;;11.38;;
58338;SDS011;68636;52.704;6.536;2024-03-08T12:43:01;33.33;;;14.73;;
58338;SDS011;68636;52.704;6.536;2024-03-08T12:45:28;26.08;;;11.20;;
58338;SDS011;68636;52.704;6.536;2024-03-08T12:47:54;26.73;;;10.83;;
58338;SDS011;68636;52.704;6.536;2024-03-08T12:50:21;30.05;;;13.90;;
58338;SDS011;68636;52.704;6.536;2024-03-08T12:52:47;29.67;;;11.77;;
58338;SDS011;68636;52.704;6.536;2024-03-08T12:55:14;27.00;;;12.52;;
58338;SDS011;68636;52.704;6.536;2024-03-08T12:57:41;25.52;;;12.32;;
58338;SDS011;68636;52.704;6.536;2024-03-08T13:00:08;26.60;;;12.93;;
58338;SDS011;68636;52.704;6.536;2024-03-08T13:02:54;28.60;;;13.93;;
58338;SDS011;68636;52.704;6.536;2024-03-08T13:05:20;24.25;;;12.30;;
58338;SDS011;68636;52.704;6.536;2024-03-08T13:07:47;27.40;;;12.55;;
58338;SDS011;68636;52.704;6.536;2024-03-08T13:10:14;27.88;;;13.77;;
58338;SDS011;68636;52.704;6.536;2024-03-08T13:12:43;22.08;;;10.82;;
58338;SDS011;68636;52.704;6.536;2024-03-08T13:15:09;21.48;;;10.75;;
58338;SDS011;68636;52.704;6.536;2024-03-08T13:17:48;27.25;;;12.48;;
58338;SDS011;68636;52.704;6.536;2024-03-08T13:20:15;20.50;;;10.15;;
58338;SDS011;68636;52.704;6.536;2024-03-08T13:22:42;27.48;;;12.82;;
58338;SDS011;68636;52.704;6.536;2024-03-08T13:25:08;24.10;;;11.57;;
58338;SDS011;68636;52.704;6.536;2024-03-08T13:27:39;22.83;;;11.23;;
58338;SDS011;68636;52.704;6.536;2024-03-08T13:30:06;25.88;;;12.75;;
58338;SDS011;68636;52.704;6.536;2024-03-08T13:32:36;27.10;;;12.27;;
58338;SDS011;68636;52.704;6.536;2024-03-08T13:35:04;30.75;;;13.23;;
58338;SDS011;68636;52.704;6.536;2024-03-08T13:37:37;21.17;;;10.60;;
58338;SDS011;68636;52.704;6.536;2024-03-08T13:40:04;26.83;;;11.43;;
58338;SDS011;68636;52.704;6.536;2024-03-08T13:42:31;27.75;;;8.82;;
58338;SDS011;68636;52.704;6.536;2024-03-08T13:44:57;27.92;;;11.98;;
58338;SDS011;68636;52.704;6.536;2024-03-08T13:47:23;24.15;;;12.85;;
58338;SDS011;68636;52.704;6.536;2024-03-08T13:49:49;22.42;;;10.88;;
58338;SDS011;68636;52.704;6.536;2024-03-08T13:52:16;25.40;;;12.32;;
58338;SDS011;68636;52.704;6.536;2024-03-08T13:54:42;26.30;;;13.18;;
58338;SDS011;68636;52.704;6.536;2024-03-08T13:57:08;25.00;;;11.43;;
58338;SDS011;68636;52.704;6.536;2024-03-08T13:59:34;26.60;;;13.15;;
58338;SDS011;68636;52.704;6.536;2024-03-08T14:02:01;23.60;;;11.32;;
58338;SDS011;68636;52.704;6.536;2024-03-08T14:04:27;26.02;;;12.02;;
58338;SDS011;68636;52.704;6.536;2024-03-08T14:06:54;28.85;;;13.65;;
58338;SDS011;68636;52.704;6.536;2024-03-08T14:09:24;26.20;;;12.85;;
58338;SDS011;68636;52.704;6.536;2024-03-08T14:11:54;27.83;;;14.00;;
58338;SDS011;68636;52.704;6.536;2024-03-08T14:14:21;25.92;;;12.40;;
58338;SDS011;68636;52.704;6.536;2024-03-08T14:16:50;25.70;;;12.20;;
58338;SDS011;68636;52.704;6.536;2024-03-08T14:19:22;24.08;;;11.68;;
58338;SDS011;68636;52.704;6.536;2024-03-08T14:21:48;17.83;;;8.95;;
58338;SDS011;68636;52.704;6.536;2024-03-08T14:24:16;26.88;;;12.90;;
58338;SDS011;68636;52.704;6.536;2024-03-08T14:26:43;25.20;;;12.00;;
58338;SDS011;68636;52.704;6.536;2024-03-08T14:29:10;28.45;;;13.00;;
58338;SDS011;68636;52.704;6.536;2024-03-08T14:31:37;25.33;;;12.47;;
58338;SDS011;68636;52.704;6.536;2024-03-08T14:34:03;27.13;;;12.45;;
58338;SDS011;68636;52.704;6.536;2024-03-08T14:36:29;25.08;;;11.15;;
58338;SDS011;68636;52.704;6.536;2024-03-08T14:38:55;21.87;;;8.87;;
58338;SDS011;68636;52.704;6.536;2024-03-08T14:41:22;24.77;;;12.82;;